Terminal Aerodrome Forecast
Issued by NWS Bismarck, ND

Home | Current Version | Previous Version | Text Only | Print | Product List | Glossary Off
Versions: 1 2 3 4 5 6 7 8 9 10 11 12 13 14 15 16 17 18 19 20 21 22 23 24 25 26 27 28 29 30

131
FTUS43 KBIS 152337
TAFBIS
TAF
KBIS 152337Z 1600/1624 10005KT 3SM SHRA OVC015
     FM160200 04005KT P6SM OVC010
     FM160900 32005KT 4SM BR OVC010
     FM161100 33005KT 3SM BR OVC008
     FM161500 34007KT P6SM SCT050=

USA.gov is the U.S. government's official web portal to all federal, state and local government web resources and services.